createdAt,value
2023-03-11T00:03:02.053Z,7.44
2023-03-11T00:08:12.702Z,7.45
2023-03-11T00:13:20.468Z,7.42
2023-03-11T00:18:31.863Z,7.28
2023-03-11T00:23:39.570Z,7.17
2023-03-11T00:28:48.804Z,7.13
2023-03-11T00:33:57.543Z,7.13
2023-03-11T00:39:06.765Z,7.08
2023-03-11T00:44:17.006Z,6.98
2023-03-11T00:49:25.095Z,6.81
2023-03-11T00:54:33.177Z,6.65
2023-03-11T00:59:42.976Z,6.53
2023-03-11T01:04:54.748Z,6.45
2023-03-11T01:10:02.653Z,6.46
2023-03-11T01:15:18.094Z,6.53
2023-03-11T01:20:26.643Z,6.61
2023-03-11T01:25:34.191Z,6.67
2023-03-11T01:30:43.443Z,6.73
2023-03-11T01:35:51.138Z,6.80
2023-03-11T01:40:58.472Z,6.79
2023-03-11T01:46:14.534Z,6.75
2023-03-11T01:51:27.181Z,6.80
2023-03-11T01:56:35.819Z,7.00
2023-03-11T02:01:50.807Z,7.23
2023-03-11T02:06:59.230Z,7.42
2023-03-11T02:12:10.054Z,7.62
2023-03-11T02:17:17.488Z,7.78
2023-03-11T02:22:25.595Z,7.85
2023-03-11T02:27:38.060Z,7.85
2023-03-11T02:32:48.894Z,7.81
2023-03-11T02:37:57.209Z,7.74
2023-03-11T02:43:07.651Z,7.66
2023-03-11T02:48:16.856Z,7.58
2023-03-11T02:53:24.503Z,7.51
2023-03-11T02:58:31.834Z,7.46
2023-03-11T03:03:39.028Z,7.41
2023-03-11T03:08:46.331Z,7.34
2023-03-11T03:13:53.715Z,7.27
2023-03-11T03:19:01.536Z,7.21
2023-03-11T03:24:09.785Z,7.14
2023-03-11T03:29:17.172Z,7.09
2023-03-11T03:34:25.472Z,7.00
2023-03-11T03:39:33.731Z,6.94
2023-03-11T03:44:41.163Z,6.85
2023-03-11T03:49:48.848Z,6.76
2023-03-11T03:54:56.620Z,6.70
2023-03-11T04:00:05.646Z,6.64
2023-03-11T04:05:15.160Z,6.59
2023-03-11T04:10:22.961Z,6.54
2023-03-11T04:15:30.422Z,6.49
2023-03-11T04:20:39.755Z,6.43
2023-03-11T04:25:46.904Z,6.39
2023-03-11T04:30:52.581Z,6.35
2023-03-11T04:36:00.478Z,6.31
2023-03-11T04:41:09.220Z,6.27
2023-03-11T04:46:16.912Z,6.22
2023-03-11T04:51:24.184Z,6.19
2023-03-11T04:56:29.990Z,6.16
2023-03-11T05:01:38.109Z,6.14
2023-03-11T05:06:45.435Z,6.13
2023-03-11T05:15:24.776Z,6.04
2023-03-11T05:20:28.583Z,5.83
2023-03-11T05:25:32.864Z,5.60
2023-03-11T05:30:36.781Z,5.36
2023-03-11T05:35:40.692Z,5.13
2023-03-11T05:40:44.536Z,4.93
2023-03-11T05:45:48.420Z,4.75
2023-03-11T05:50:52.287Z,4.59
2023-03-11T05:56:01.530Z,4.48
2023-03-11T06:01:10.642Z,4.37
2023-03-11T06:06:14.930Z,4.26
2023-03-11T06:11:19.204Z,4.17
2023-03-11T06:16:23.795Z,4.09
2023-03-11T06:21:28.514Z,4.00
2023-03-11T06:26:33.231Z,3.96
2023-03-11T06:31:37.218Z,4.00
2023-03-11T06:36:41.267Z,3.93
2023-03-11T06:41:45.251Z,3.80
2023-03-11T06:46:49.141Z,3.60
2023-03-11T06:51:53.780Z,3.42
2023-03-11T06:56:57.938Z,3.22
2023-03-11T07:02:03.877Z,3.02
2023-03-11T07:07:07.823Z,2.88
2023-03-11T07:12:12.150Z,2.80
2023-03-11T07:17:16.699Z,2.75
2023-03-11T07:22:20.644Z,2.72
2023-03-11T07:27:24.504Z,2.72
2023-03-11T07:32:28.660Z,2.78
2023-03-11T07:37:33.015Z,2.75
2023-03-11T07:42:37.349Z,2.69
2023-03-11T07:47:41.203Z,2.65
2023-03-11T07:52:45.294Z,2.67
2023-03-11T07:57:51.234Z,2.66
2023-03-11T08:02:55.511Z,2.60
2023-03-11T08:07:59.753Z,2.61
2023-03-11T08:13:03.685Z,2.66
2023-03-11T08:18:10.064Z,2.64
2023-03-11T08:23:15.098Z,2.64
2023-03-11T08:28:18.920Z,2.63
2023-03-11T08:33:22.848Z,2.50
2023-03-11T08:38:26.996Z,2.40
2023-03-11T08:43:30.865Z,2.35
2023-03-11T08:48:35.598Z,2.37
2023-03-11T08:53:40.137Z,2.35
2023-03-11T08:58:44.323Z,2.35
2023-03-11T09:03:48.853Z,2.36
2023-03-11T09:08:52.923Z,2.33
2023-03-11T09:13:56.936Z,2.34
2023-03-11T09:19:03.504Z,2.38
2023-03-11T09:24:08.492Z,2.41
2023-03-11T09:29:12.366Z,2.45
2023-03-11T09:34:16.381Z,2.58
2023-03-11T09:39:20.542Z,2.75
2023-03-11T09:44:32.817Z,2.89
2023-03-11T09:50:05.532Z,2.86
2023-03-11T09:55:31.857Z,2.77
2023-03-11T10:00:36.461Z,2.82
2023-03-11T10:05:42.833Z,2.88
2023-03-11T10:10:54.955Z,2.90
2023-03-11T10:16:09.130Z,2.83
2023-03-11T10:21:25.664Z,2.71
2023-03-11T10:26:34.121Z,2.35
2023-03-11T10:31:43.848Z,2.10
2023-03-11T10:36:57.136Z,1.97
2023-03-11T10:42:02.814Z,1.83
2023-03-11T10:47:15.497Z,1.77
2023-03-11T10:52:20.022Z,1.73
2023-03-11T10:57:26.696Z,1.68
2023-03-11T11:02:33.078Z,1.55
2023-03-11T11:07:40.906Z,1.40
2023-03-11T11:12:59.416Z,1.24
2023-03-11T11:18:07.908Z,1.12
2023-03-11T11:23:26.967Z,1.04
2023-03-11T11:28:31.726Z,0.96
2023-03-11T11:33:49.483Z,0.91
2023-03-11T11:38:54.529Z,0.85
2023-03-11T11:44:03.126Z,0.73
2023-03-11T11:49:18.047Z,0.65
2023-03-11T11:54:27.741Z,0.58
2023-03-11T11:59:31.938Z,0.55
2023-03-11T12:04:50.088Z,0.56
2023-03-11T12:10:21.431Z,0.52
2023-03-11T12:15:29.496Z,0.47
2023-03-11T12:20:37.619Z,0.47
2023-03-11T12:25:51.906Z,0.49
2023-03-11T12:31:00.166Z,0.50
2023-03-11T12:36:09.750Z,0.45
2023-03-11T12:41:30.348Z,0.31
2023-03-11T12:47:11.079Z,0.24
2023-03-11T12:52:21.322Z,0.17
2023-03-11T12:57:35.227Z,0.13
2023-03-11T13:03:10.600Z,0.08
2023-03-11T13:08:16.969Z,0.02
2023-03-11T13:13:38.410Z,0.02
2023-03-11T13:18:43.347Z,0.05
2023-03-11T13:23:47.281Z,0.08
2023-03-11T13:29:09.115Z,0.11
2023-03-11T13:34:16.524Z,0.08
2023-03-11T13:39:37.708Z,-0.02
2023-03-11T13:44:42.437Z,-0.03
2023-03-11T13:49:52.748Z,-0.01
2023-03-11T13:55:02.711Z,0.07
2023-03-11T14:00:17.156Z,0.08
2023-03-11T14:05:25.004Z,0.03
2023-03-11T14:10:31.149Z,-0.02
2023-03-11T14:15:44.498Z,-0.11
2023-03-11T14:20:49.997Z,-0.18
2023-03-11T14:26:01.426Z,-0.19
2023-03-11T14:31:06.186Z,-0.17
2023-03-11T14:36:15.170Z,-0.11
2023-03-11T14:41:19.126Z,-0.10
2023-03-11T14:46:28.551Z,-0.07
2023-03-11T14:51:35.737Z,-0.03
2023-03-11T14:56:44.738Z,-0.00
2023-03-11T15:01:50.307Z,-0.01
2023-03-11T15:06:55.420Z,-0.02
2023-03-11T15:16:27.121Z,-0.03
2023-03-11T15:21:35.516Z,-0.09
2023-03-11T15:26:55.487Z,-0.12
2023-03-11T15:32:23.252Z,-0.16
2023-03-11T15:37:29.039Z,-0.21
2023-03-11T15:42:36.357Z,-0.26
2023-03-11T15:47:46.214Z,-0.37
2023-03-11T16:02:52.043Z,-0.51
2023-03-11T16:07:59.344Z,-0.54
2023-03-11T16:13:05.298Z,-0.54
2023-03-11T16:18:13.543Z,-0.56
2023-03-11T16:23:23.941Z,-0.60
2023-03-11T16:28:31.556Z,-0.64
2023-03-11T16:33:39.036Z,-0.63
2023-03-11T16:38:48.962Z,-0.60
2023-03-11T16:43:57.654Z,-0.58
2023-03-11T16:49:05.664Z,-0.56
2023-03-11T16:54:13.282Z,-0.52
2023-03-11T16:59:21.110Z,-0.49
2023-03-11T17:04:28.746Z,-0.48
2023-03-11T17:09:37.209Z,-0.44
2023-03-11T17:14:45.181Z,-0.41
2023-03-11T17:19:53.018Z,-0.39
2023-03-11T17:25:01.110Z,-0.37
2023-03-11T17:30:11.594Z,-0.40
2023-03-11T17:35:21.248Z,-0.41
2023-03-11T17:40:30.438Z,-0.38
2023-03-11T17:45:41.417Z,-0.38
2023-03-11T17:50:48.693Z,-0.39
2023-03-11T17:55:57.885Z,-0.41
2023-03-11T18:01:08.883Z,-0.44
2023-03-11T18:06:17.059Z,-0.50
2023-03-11T18:11:27.285Z,-0.53
2023-03-11T18:16:35.291Z,-0.57
2023-03-11T18:21:45.126Z,-0.64
2023-03-11T18:26:53.434Z,-0.71
2023-03-11T18:32:00.973Z,-0.75
2023-03-11T18:37:09.138Z,-0.77
2023-03-11T18:42:17.055Z,-0.79
2023-03-11T18:47:24.457Z,-0.76
2023-03-11T18:52:32.530Z,-0.76
2023-03-11T18:57:43.355Z,-0.74
2023-03-11T19:02:55.074Z,-0.72
2023-03-11T19:08:02.840Z,-0.68
2023-03-11T19:13:12.201Z,-0.69
2023-03-11T19:18:21.559Z,-0.70
2023-03-11T19:23:30.534Z,-0.68
2023-03-11T19:31:25.941Z,-0.64
2023-03-11T19:36:33.508Z,-0.67
2023-03-11T19:41:40.924Z,-0.66
2023-03-11T19:46:48.460Z,-0.64
2023-03-11T19:51:56.291Z,-0.64
2023-03-11T19:57:03.754Z,-0.65
2023-03-11T20:02:14.211Z,-0.67
2023-03-11T20:07:22.022Z,-0.68
2023-03-11T20:12:29.573Z,-0.73
2023-03-11T20:17:37.084Z,-0.79
2023-03-11T20:22:44.592Z,-0.83
2023-03-11T20:27:52.711Z,-0.88
2023-03-11T20:33:01.107Z,-0.93
2023-03-11T20:38:10.828Z,-0.97
2023-03-11T20:43:18.366Z,-1.03
2023-03-11T20:48:26.102Z,-1.07
2023-03-11T20:53:33.803Z,-1.11
2023-03-11T20:58:41.959Z,-1.16
2023-03-11T21:03:50.082Z,-1.24
2023-03-11T21:08:58.879Z,-1.29
2023-03-11T21:14:07.130Z,-1.34
2023-03-11T21:19:15.738Z,-1.37
2023-03-11T21:24:24.028Z,-1.37
2023-03-11T21:29:32.437Z,-1.38
2023-03-11T21:34:40.218Z,-1.43
2023-03-11T21:39:47.956Z,-1.48
2023-03-11T21:44:55.632Z,-1.50
2023-03-11T21:50:03.143Z,-1.52
2023-03-11T21:55:12.576Z,-1.54
2023-03-11T22:00:21.934Z,-1.50
2023-03-11T22:05:29.742Z,-1.46
2023-03-11T22:10:37.590Z,-1.45
2023-03-11T22:15:45.180Z,-1.45
2023-03-11T22:20:52.748Z,-1.45
2023-03-11T22:26:00.093Z,-1.44
2023-03-11T22:31:11.107Z,-1.42
2023-03-11T22:36:18.466Z,-1.39
2023-03-11T22:41:26.116Z,-1.33
2023-03-11T22:46:33.907Z,-1.31
2023-03-11T22:51:41.532Z,-1.30
2023-03-11T22:56:49.039Z,-1.30
2023-03-11T23:01:56.826Z,-1.29
2023-03-11T23:07:04.593Z,-1.29
2023-03-11T23:12:12.810Z,-1.26
2023-03-11T23:17:20.705Z,-1.24
2023-03-11T23:22:28.660Z,-1.22
2023-03-11T23:27:36.442Z,-1.20
2023-03-11T23:32:44.511Z,-1.22
2023-03-11T23:37:52.665Z,-1.21
2023-03-11T23:43:00.496Z,-1.20
2023-03-11T23:48:08.442Z,-1.23
2023-03-11T23:53:17.528Z,-1.29
2023-03-11T23:58:25.889Z,-1.32
